createdAt,value
2022-07-27T00:14:11.280Z,54.59
2022-07-27T00:23:39.054Z,55.20
2022-07-27T00:30:11.710Z,55.16
2022-07-27T00:33:16.967Z,55.39
2022-07-27T00:36:26.704Z,55.36
2022-07-27T00:39:19.403Z,55.63
2022-07-27T00:41:55.766Z,55.73
2022-07-27T01:12:14.056Z,57.06
2022-07-27T01:21:28.720Z,57.74
2022-07-27T01:24:31.802Z,58.36
2022-07-27T01:41:15.238Z,59.53
2022-07-27T01:41:50.978Z,59.68
2022-07-27T02:02:59.860Z,59.80
2022-07-27T02:07:05.488Z,59.94
2022-07-27T02:13:22.837Z,60.83
2022-07-27T02:33:15.697Z,62.80
2022-07-27T02:35:56.190Z,62.94
2022-07-27T02:38:58.495Z,63.50
2022-07-27T02:54:12.281Z,65.27
2022-07-27T02:57:31.228Z,64.98
2022-07-27T03:04:05.208Z,65.45
2022-07-27T03:07:01.455Z,65.74
2022-07-27T03:14:01.465Z,65.59
2022-07-27T03:19:54.769Z,65.97
2022-07-27T03:26:19.968Z,66.33
2022-07-27T03:35:26.984Z,66.34
2022-07-27T03:38:09.184Z,66.59
2022-07-27T03:41:51.388Z,65.92
2022-07-27T03:48:34.375Z,66.05
2022-07-27T03:51:21.280Z,66.30
2022-07-27T03:54:41.694Z,66.23
2022-07-27T03:57:42.906Z,66.28
2022-07-27T04:00:56.504Z,66.74
2022-07-27T04:04:07.794Z,67.28
2022-07-27T04:06:49.879Z,67.10
2022-07-27T04:13:18.345Z,67.73
2022-07-27T04:15:50.247Z,68.04
2022-07-27T04:18:39.977Z,68.31
2022-07-27T04:21:11.055Z,68.26
2022-07-27T04:23:38.610Z,68.04
2022-07-27T04:26:06.892Z,68.21
2022-07-27T04:28:34.913Z,67.78
2022-07-27T04:31:01.836Z,67.56
2022-07-27T04:33:28.861Z,67.83
2022-07-27T04:36:00.892Z,67.23
2022-07-27T04:38:27.738Z,67.42
2022-07-27T04:40:58.240Z,67.71
2022-07-27T04:43:25.325Z,67.64
2022-07-27T04:45:56.718Z,68.30
2022-07-27T04:48:23.517Z,68.28
2022-07-27T04:50:50.297Z,68.13
2022-07-27T04:53:17.070Z,68.51
2022-07-27T04:55:45.128Z,68.63
2022-07-27T04:58:13.189Z,68.56
2022-07-27T05:00:40.392Z,68.43
2022-07-27T05:03:13.030Z,68.62
2022-07-27T05:05:49.634Z,68.32
2022-07-27T05:08:16.974Z,68.07
2022-07-27T05:10:55.878Z,68.09
2022-07-27T05:13:22.986Z,68.31
2022-07-27T05:15:55.563Z,68.44
2022-07-27T05:18:23.555Z,68.28
2022-07-27T05:20:50.406Z,68.34
2022-07-27T05:23:17.721Z,68.09
2022-07-27T05:25:46.917Z,68.04
2022-07-27T05:28:14.096Z,68.06
2022-07-27T05:30:41.079Z,67.53
2022-07-27T05:33:07.918Z,67.08
2022-07-27T05:35:34.811Z,66.79
2022-07-27T05:38:01.518Z,66.45
2022-07-27T05:40:28.548Z,66.05
2022-07-27T05:42:55.576Z,65.72
2022-07-27T05:45:22.450Z,65.79
2022-07-27T05:47:49.425Z,66.54
2022-07-27T05:50:18.084Z,66.72
2022-07-27T05:52:44.914Z,66.95
2022-07-27T05:55:12.210Z,66.94
2022-07-27T05:57:46.672Z,66.75
2022-07-27T06:00:13.689Z,67.24
2022-07-27T06:02:41.105Z,67.25
2022-07-27T06:05:11.921Z,67.46
2022-07-27T06:08:03.589Z,67.69
2022-07-27T06:10:32.976Z,66.97
2022-07-27T06:13:01.089Z,67.09
2022-07-27T06:15:31.535Z,67.10
2022-07-27T06:18:20.650Z,66.83
2022-07-27T06:21:29.281Z,66.86
2022-07-27T06:24:24.026Z,66.50
2022-07-27T06:26:56.502Z,66.06
2022-07-27T06:29:55.441Z,66.06
2022-07-27T06:32:43.523Z,65.54
2022-07-27T06:35:14.645Z,65.31
2022-07-27T06:37:51.558Z,64.99
2022-07-27T06:40:33.585Z,64.69
2022-07-27T06:43:14.600Z,63.34
2022-07-27T06:45:42.510Z,63.06
2022-07-27T06:48:12.980Z,62.82
2022-07-27T06:51:00.867Z,62.70
2022-07-27T07:02:19.937Z,61.22
2022-07-27T07:54:02.088Z,55.50
2022-07-27T07:56:53.367Z,55.39
2022-07-27T08:00:22.470Z,54.55
2022-07-27T08:11:41.144Z,52.55
2022-07-27T08:15:36.357Z,52.76
2022-07-27T08:18:06.374Z,53.04
2022-07-27T08:20:33.790Z,53.58
2022-07-27T08:23:28.490Z,53.46
2022-07-27T08:26:23.944Z,53.06
2022-07-27T08:28:56.709Z,52.83
2022-07-27T08:31:52.901Z,52.09
2022-07-27T08:34:16.352Z,51.99
2022-07-27T08:36:43.742Z,51.75
2022-07-27T08:39:52.475Z,51.36
2022-07-27T08:48:42.003Z,49.81
2022-07-27T09:02:42.408Z,50.39
2022-07-27T09:05:16.366Z,50.12
2022-07-27T09:07:45.651Z,49.69
2022-07-27T09:10:29.647Z,48.79
2022-07-27T09:12:56.684Z,49.00
2022-07-27T09:15:23.551Z,48.57
2022-07-27T09:17:50.711Z,48.92
2022-07-27T09:20:21.189Z,49.07
2022-07-27T09:22:55.327Z,48.87
2022-07-27T09:25:52.088Z,48.81
2022-07-27T09:28:11.007Z,49.22
2022-07-27T09:30:43.207Z,49.47
2022-07-27T09:33:10.657Z,49.56
2022-07-27T09:35:37.984Z,50.23
2022-07-27T09:38:24.890Z,50.23
2022-07-27T09:41:02.342Z,49.54
2022-07-27T09:46:16.553Z,50.51
2022-07-27T09:48:43.421Z,50.97
2022-07-27T09:51:57.617Z,51.12
2022-07-27T09:54:00.588Z,51.00
2022-07-27T09:56:32.229Z,51.62
2022-07-27T09:59:00.929Z,51.19
2022-07-27T10:01:35.112Z,51.15
2022-07-27T10:04:04.979Z,51.51
2022-07-27T10:06:47.711Z,51.93
2022-07-27T10:09:20.051Z,52.28
2022-07-27T10:11:49.960Z,52.48
2022-07-27T10:14:16.734Z,51.76
2022-07-27T10:16:43.739Z,51.79
2022-07-27T10:19:22.080Z,51.57
2022-07-27T10:21:49.999Z,51.70
2022-07-27T10:24:37.039Z,51.34
2022-07-27T10:27:21.454Z,50.58
2022-07-27T10:29:48.997Z,51.03
2022-07-27T10:32:28.099Z,50.74
2022-07-27T10:34:54.875Z,50.39
2022-07-27T10:37:26.231Z,50.31
2022-07-27T10:40:16.786Z,50.20
2022-07-27T10:42:53.520Z,50.20
2022-07-27T10:45:22.385Z,49.74
2022-07-27T10:47:52.305Z,49.88
2022-07-27T10:50:24.600Z,50.38
2022-07-27T10:52:54.132Z,50.02
2022-07-27T10:55:30.513Z,49.40
2022-07-27T10:58:18.953Z,49.28
2022-07-27T11:00:53.645Z,48.64
2022-07-27T11:03:27.026Z,48.53
2022-07-27T11:06:31.863Z,48.48
2022-07-27T11:11:49.577Z,48.49
2022-07-27T11:14:19.032Z,48.23
2022-07-27T11:16:56.147Z,48.30
2022-07-27T11:19:24.675Z,47.93
2022-07-27T11:21:53.979Z,48.22
2022-07-27T11:24:20.838Z,48.33
2022-07-27T11:26:50.127Z,48.76
2022-07-27T11:29:20.719Z,49.08
2022-07-27T11:31:58.001Z,48.78
2022-07-27T11:34:33.166Z,48.46
2022-07-27T11:37:03.141Z,48.74
2022-07-27T11:42:37.390Z,48.21
2022-07-27T11:45:05.100Z,47.73
2022-07-27T11:47:34.149Z,47.74
2022-07-27T11:50:07.471Z,47.67
2022-07-27T11:52:34.711Z,47.88
2022-07-27T11:55:01.413Z,47.80
2022-07-27T11:57:32.938Z,48.33
2022-07-27T11:59:59.650Z,48.35
2022-07-27T12:02:27.457Z,48.74
2022-07-27T12:04:59.150Z,48.85
2022-07-27T12:07:31.412Z,48.30
2022-07-27T12:10:00.259Z,47.69
2022-07-27T12:12:31.590Z,47.62
2022-07-27T12:15:11.700Z,46.75
2022-07-27T12:18:06.972Z,47.50
2022-07-27T12:24:03.091Z,47.31
2022-07-27T12:26:30.273Z,47.53
2022-07-27T12:29:12.214Z,46.84
2022-07-27T12:31:48.991Z,46.91
2022-07-27T12:34:15.715Z,46.79
2022-07-27T12:36:42.994Z,47.00
2022-07-27T12:39:25.631Z,47.47
2022-07-27T12:42:03.628Z,47.42
2022-07-27T12:44:35.089Z,44.99
2022-07-27T12:47:27.300Z,45.66
2022-07-27T12:50:02.593Z,45.82
2022-07-27T12:52:32.237Z,46.27
2022-07-27T12:56:02.927Z,46.54
2022-07-27T12:59:37.158Z,47.18
2022-07-27T13:05:37.171Z,47.05
2022-07-27T13:08:16.704Z,47.23
2022-07-27T13:10:58.234Z,47.37
2022-07-27T13:13:36.063Z,47.10
2022-07-27T13:16:06.817Z,46.74
2022-07-27T13:18:47.100Z,46.64
2022-07-27T13:21:46.736Z,45.94
2022-07-27T13:24:53.299Z,46.01
2022-07-27T13:27:28.964Z,45.36
2022-07-27T13:29:56.067Z,45.14
2022-07-27T13:33:17.065Z,45.40
2022-07-27T13:35:47.721Z,45.51
2022-07-27T13:38:26.292Z,45.36
2022-07-27T13:40:52.980Z,45.54
2022-07-27T13:43:19.729Z,45.76
2022-07-27T13:45:46.683Z,45.87
2022-07-27T13:48:13.507Z,45.79
2022-07-27T13:50:40.367Z,45.62
2022-07-27T13:53:07.091Z,46.23
2022-07-27T13:55:34.589Z,46.00
2022-07-27T13:58:01.397Z,45.65
2022-07-27T14:00:28.181Z,45.74
2022-07-27T14:02:57.530Z,45.70
2022-07-27T14:05:24.526Z,46.01
2022-07-27T14:07:55.984Z,45.88
2022-07-27T14:10:31.737Z,45.69
2022-07-27T14:13:08.242Z,45.57
2022-07-27T14:15:54.398Z,45.21
2022-07-27T14:18:30.617Z,45.28
2022-07-27T14:21:00.081Z,45.50
2022-07-27T14:23:30.371Z,45.77
2022-07-27T14:26:01.703Z,45.74
2022-07-27T14:29:11.247Z,45.58
2022-07-27T14:34:55.594Z,45.62
2022-07-27T14:37:22.347Z,45.78
2022-07-27T14:39:49.075Z,45.67
2022-07-27T14:42:16.624Z,45.50
2022-07-27T14:44:43.332Z,45.21
2022-07-27T14:47:10.062Z,45.03
2022-07-27T14:49:36.865Z,44.90
2022-07-27T14:52:03.667Z,43.05
2022-07-27T14:54:33.619Z,42.45
2022-07-27T14:57:06.976Z,42.08
2022-07-27T14:59:33.664Z,41.97
2022-07-27T15:02:00.462Z,41.88
2022-07-27T15:04:36.861Z,41.66
2022-07-27T15:07:48.729Z,40.99
2022-07-27T15:14:18.348Z,42.21
2022-07-27T15:17:14.803Z,41.74
2022-07-27T15:20:28.524Z,42.13
2022-07-27T15:22:57.649Z,42.92
2022-07-27T15:25:24.571Z,42.05
2022-07-27T15:27:51.297Z,42.63
2022-07-27T15:30:18.094Z,42.57
2022-07-27T15:32:45.023Z,42.58
2022-07-27T15:35:13.318Z,42.22
2022-07-27T15:37:40.224Z,42.08
2022-07-27T15:40:26.396Z,42.83
2022-07-27T15:42:53.242Z,43.02
2022-07-27T15:45:20.265Z,42.93
2022-07-27T15:47:52.808Z,43.37
2022-07-27T15:50:22.260Z,43.05
2022-07-27T15:52:59.142Z,42.84
2022-07-27T15:55:26.540Z,42.20
2022-07-27T15:57:55.499Z,42.73
2022-07-27T16:00:22.272Z,42.67
2022-07-27T16:02:54.887Z,42.63
2022-07-27T16:05:27.160Z,41.73
2022-07-27T16:07:54.325Z,41.17
2022-07-27T16:10:21.169Z,40.98
2022-07-27T16:12:52.577Z,41.12
2022-07-27T16:15:26.758Z,41.62
2022-07-27T16:17:53.429Z,41.30
2022-07-27T16:20:20.246Z,39.35
2022-07-27T16:22:47.286Z,39.53
2022-07-27T16:25:14.040Z,39.40
2022-07-27T16:27:40.745Z,38.85
2022-07-27T16:30:20.716Z,38.99
2022-07-27T16:32:51.429Z,39.43
2022-07-27T16:35:18.114Z,39.33
2022-07-27T16:37:45.943Z,38.47
2022-07-27T16:40:18.400Z,38.79
2022-07-27T16:42:45.487Z,38.55
2022-07-27T16:45:12.514Z,38.98
2022-07-27T16:47:39.626Z,39.54
2022-07-27T16:50:08.722Z,39.86
2022-07-27T16:52:35.849Z,40.41
2022-07-27T16:55:14.047Z,41.29
2022-07-27T16:57:54.760Z,41.73
2022-07-27T17:00:22.090Z,41.21
2022-07-27T17:02:49.203Z,41.36
2022-07-27T17:05:16.151Z,41.05
2022-07-27T17:07:45.021Z,41.49
2022-07-27T17:10:11.784Z,41.19
2022-07-27T17:12:53.434Z,40.78
2022-07-27T17:15:21.000Z,41.14
2022-07-27T17:17:48.209Z,40.44
2022-07-27T17:20:14.963Z,39.38
2022-07-27T17:22:41.881Z,38.73
2022-07-27T17:25:08.924Z,38.19
2022-07-27T17:27:39.471Z,38.68
2022-07-27T17:30:07.646Z,38.74
2022-07-27T17:32:34.899Z,38.96
2022-07-27T17:35:01.613Z,38.50
2022-07-27T17:37:49.341Z,38.30
2022-07-27T17:40:15.179Z,38.54
2022-07-27T17:42:42.029Z,39.25
2022-07-27T17:45:09.470Z,40.00
2022-07-27T17:47:36.263Z,40.20
2022-07-27T17:50:06.331Z,40.06
2022-07-27T17:52:38.177Z,39.34
2022-07-27T17:55:05.847Z,40.13
2022-07-27T17:57:32.571Z,40.67
2022-07-27T18:00:00.167Z,41.23
2022-07-27T18:02:29.598Z,41.40
2022-07-27T18:04:56.962Z,40.53
2022-07-27T18:07:23.691Z,40.12
2022-07-27T18:09:50.742Z,39.90
2022-07-27T18:12:21.640Z,39.94
2022-07-27T18:15:15.463Z,40.63
2022-07-27T18:17:42.198Z,40.19
2022-07-27T18:20:10.204Z,39.93
2022-07-27T18:22:38.609Z,39.98
2022-07-27T18:25:07.079Z,40.28
2022-07-27T18:27:35.602Z,41.00
2022-07-27T18:30:03.827Z,41.42
2022-07-27T18:32:30.827Z,41.48
2022-07-27T18:34:57.558Z,42.47
2022-07-27T18:37:24.254Z,42.75
2022-07-27T18:39:50.933Z,42.89
2022-07-27T18:42:17.710Z,42.95
2022-07-27T18:44:47.376Z,43.51
2022-07-27T18:47:14.314Z,43.75
2022-07-27T18:49:43.677Z,44.09
2022-07-27T18:52:10.334Z,44.39
2022-07-27T18:54:37.772Z,44.47
2022-07-27T18:57:05.035Z,44.93
2022-07-27T18:59:31.818Z,45.29
2022-07-27T19:01:58.706Z,45.66
2022-07-27T19:04:25.573Z,45.83
2022-07-27T19:06:52.937Z,46.27
2022-07-27T19:09:20.171Z,46.68
